createdAt,value
2018-03-02T00:00:25.691Z,91877.47
2018-03-02T00:02:52.295Z,91879.80
2018-03-02T00:05:18.969Z,91872.41
2018-03-02T00:07:45.574Z,91868.75
2018-03-02T00:10:12.178Z,91870.17
2018-03-02T00:12:38.760Z,91858.92
2018-03-02T00:15:05.334Z,91858.21
2018-03-02T00:17:32.671Z,91848.42
2018-03-02T00:19:59.252Z,91844.55
2018-03-02T00:22:26.555Z,91844.45
2018-03-02T00:24:53.153Z,91840.84
2018-03-02T00:27:19.766Z,91841.78
2018-03-02T00:29:47.113Z,91844.20
2018-03-02T00:32:13.748Z,91844.10
2018-03-02T00:34:41.091Z,91848.57
2018-03-02T00:37:08.395Z,91849.34
2018-03-02T00:39:34.962Z,91840.90
2018-03-02T00:42:01.506Z,91833.20
2018-03-02T00:44:28.084Z,91832.08
2018-03-02T00:46:55.367Z,91842.76
2018-03-02T00:49:21.921Z,91829.38
2018-03-02T00:51:48.467Z,91819.21
2018-03-02T00:54:15.125Z,91820.41
2018-03-02T00:56:41.770Z,91808.73
2018-03-02T00:59:08.884Z,91811.30
2018-03-02T01:01:35.421Z,91812.44
2018-03-02T01:04:02.778Z,91805.69
2018-03-02T01:06:29.434Z,91807.03
2018-03-02T01:08:56.789Z,91796.61
2018-03-02T01:11:24.126Z,91787.94
2018-03-02T01:13:50.755Z,91794.17
2018-03-02T01:16:17.317Z,91796.06
2018-03-02T01:18:44.753Z,91793.13
2018-03-02T01:21:12.074Z,91789.00
2018-03-02T01:23:38.928Z,91794.59
2018-03-02T01:26:05.509Z,91794.39
2018-03-02T01:28:32.822Z,91800.24
2018-03-02T01:30:59.396Z,91796.75
2018-03-02T01:33:25.998Z,91792.84
2018-03-02T01:35:52.603Z,91795.52
2018-03-02T01:38:19.894Z,91792.70
2018-03-02T01:40:46.479Z,91790.96
2018-03-02T01:43:13.126Z,91797.48
2018-03-02T01:45:40.455Z,91796.35
2018-03-02T01:48:07.040Z,91792.92
2018-03-02T01:50:33.660Z,91797.61
2018-03-02T01:53:00.267Z,91798.77
2018-03-02T01:55:27.595Z,91795.31
2018-03-02T01:57:54.192Z,91792.36
2018-03-02T02:00:20.778Z,91792.09
2018-03-02T02:02:48.120Z,91787.33
2018-03-02T02:05:14.729Z,91786.31
2018-03-02T02:07:41.327Z,91780.93
2018-03-02T02:10:07.948Z,91782.23
2018-03-02T02:12:34.550Z,91776.42
2018-03-02T02:15:01.138Z,91780.12
2018-03-02T02:17:28.667Z,91778.70
2018-03-02T02:19:55.202Z,91776.28
2018-03-02T02:22:22.481Z,91777.42
2018-03-02T02:24:49.811Z,91770.25
2018-03-02T02:27:16.383Z,91770.77
2018-03-02T02:29:43.682Z,91764.85
2018-03-02T02:32:10.236Z,91763.17
2018-03-02T02:34:36.846Z,91748.45
2018-03-02T02:37:03.490Z,91739.13
2018-03-02T02:39:30.048Z,91738.83
2018-03-02T02:41:56.964Z,91739.90
2018-03-02T02:44:23.523Z,91728.88
2018-03-02T02:46:50.073Z,91729.69
2018-03-02T02:49:16.655Z,91718.98
2018-03-02T02:51:43.205Z,91709.24
2018-03-02T02:54:09.834Z,91695.56
2018-03-02T02:56:36.378Z,91692.94
2018-03-02T02:59:02.946Z,91686.55
2018-03-02T03:01:29.552Z,91682.89
2018-03-02T03:03:56.137Z,91678.44
2018-03-02T03:06:22.939Z,91678.17
2018-03-02T03:08:49.554Z,91672.88
2018-03-02T03:11:16.136Z,91672.41
2018-03-02T03:13:42.732Z,91675.28
2018-03-02T03:16:09.337Z,91675.30
2018-03-02T03:18:36.675Z,91685.45
2018-03-02T03:21:03.230Z,91680.25
2018-03-02T03:23:30.549Z,91671.25
2018-03-02T03:25:57.102Z,91660.03
2018-03-02T03:28:23.673Z,91652.42
2018-03-02T03:30:50.947Z,91638.98
2018-03-02T03:33:17.538Z,91627.48
2018-03-02T03:35:44.857Z,91626.87
2018-03-02T03:38:11.434Z,91639.62
2018-03-02T03:40:38.090Z,91640.78
2018-03-02T03:43:04.645Z,91638.70
2018-03-02T03:45:32.023Z,91637.16
2018-03-02T03:47:58.602Z,91628.36
2018-03-02T03:50:25.258Z,91632.30
2018-03-02T03:52:51.822Z,91641.25
2018-03-02T03:55:18.398Z,91644.84
2018-03-02T03:57:45.037Z,91638.81
2018-03-02T04:00:11.667Z,91621.86
2018-03-02T04:02:39.019Z,91625.62
2018-03-02T04:05:05.612Z,91631.41
2018-03-02T04:07:32.193Z,91636.50
2018-03-02T04:09:58.726Z,91630.66
2018-03-02T04:12:25.747Z,91636.57
2018-03-02T04:14:52.302Z,91634.58
2018-03-02T04:17:19.614Z,91630.19
2018-03-02T04:19:46.182Z,91632.14
2018-03-02T04:22:12.739Z,91621.19
2018-03-02T04:24:39.285Z,91604.66
2018-03-02T04:27:06.570Z,91598.84
2018-03-02T04:29:33.159Z,91596.75
2018-03-02T04:31:59.722Z,91588.66
2018-03-02T04:34:27.039Z,91587.92
2018-03-02T04:36:53.584Z,91588.00
2018-03-02T04:39:20.183Z,91582.73
2018-03-02T04:41:46.734Z,91587.81
2018-03-02T04:44:13.324Z,91583.69
2018-03-02T04:46:39.858Z,91579.46
2018-03-02T04:49:07.446Z,91583.31
2018-03-02T04:51:34.034Z,91588.54
2018-03-02T04:54:00.566Z,91579.13
2018-03-02T04:56:27.881Z,91574.02
2018-03-02T04:58:54.481Z,91572.63
2018-03-02T05:01:21.806Z,91574.83
2018-03-02T05:03:48.708Z,91572.80
2018-03-02T05:06:15.270Z,91567.50
2018-03-02T05:08:41.890Z,91563.80
2018-03-02T05:11:08.845Z,91555.75
2018-03-02T05:13:35.564Z,91561.05
2018-03-02T05:16:02.143Z,91558.34
2018-03-02T05:18:28.786Z,91553.05
2018-03-02T05:20:55.350Z,91550.97
2018-03-02T05:23:22.673Z,91551.66
2018-03-02T05:25:50.030Z,91548.41
2018-03-02T05:28:16.589Z,91539.00
2018-03-02T05:30:43.875Z,91537.55
2018-03-02T05:33:10.706Z,91536.70
2018-03-02T05:35:37.274Z,91532.17
2018-03-02T05:38:03.862Z,91519.81
2018-03-02T05:40:31.162Z,91510.55
2018-03-02T05:42:57.701Z,91505.00
2018-03-02T05:45:24.614Z,91494.72
2018-03-02T05:47:51.155Z,91495.88
2018-03-02T05:50:17.717Z,91492.56
2018-03-02T05:52:44.283Z,91505.33
2018-03-02T05:55:10.882Z,91500.15
2018-03-02T05:57:37.521Z,91501.39
2018-03-02T06:00:04.194Z,91503.77
2018-03-02T06:02:31.497Z,91497.27
2018-03-02T06:04:58.054Z,91500.15
2018-03-02T06:07:24.654Z,91501.03
2018-03-02T06:09:51.283Z,91498.73
2018-03-02T06:12:18.976Z,91495.95
2018-03-02T06:14:45.517Z,91486.03
2018-03-02T06:17:12.109Z,91486.43
2018-03-02T06:19:38.707Z,91486.73
2018-03-02T06:22:05.362Z,91489.53
2018-03-02T06:24:31.970Z,91486.87
2018-03-02T06:26:58.533Z,91485.45
2018-03-02T06:29:25.904Z,91486.53
2018-03-02T06:31:52.484Z,91486.53
2018-03-02T06:34:19.819Z,91480.45
2018-03-02T06:36:46.411Z,91480.00
2018-03-02T06:39:13.001Z,91470.23
2018-03-02T06:41:39.588Z,91476.54
2018-03-02T06:44:06.918Z,91477.66
2018-03-02T06:46:33.494Z,91476.33
2018-03-02T06:49:00.063Z,91471.22
2018-03-02T06:51:26.661Z,91472.66
2018-03-02T06:53:53.245Z,91472.02
2018-03-02T06:56:19.893Z,91466.20
2018-03-02T06:58:46.815Z,91472.67
2018-03-02T07:01:13.440Z,91469.22
2018-03-02T07:03:40.035Z,91468.84
2018-03-02T07:06:07.514Z,91460.84
2018-03-02T07:08:34.880Z,91463.01
2018-03-02T07:11:01.447Z,91458.69
2018-03-02T07:13:28.298Z,91451.82
2018-03-02T07:15:54.866Z,91455.02
2018-03-02T07:18:21.506Z,91451.57
2018-03-02T07:20:48.847Z,91447.58
2018-03-02T07:23:15.395Z,91447.04
2018-03-02T07:25:42.251Z,91447.83
2018-03-02T07:28:09.750Z,91439.19
2018-03-02T07:30:36.301Z,91446.23
2018-03-02T07:33:02.864Z,91443.36
2018-03-02T07:35:29.421Z,91438.62
2018-03-02T07:37:56.051Z,91435.50
2018-03-02T07:40:22.668Z,91438.21
2018-03-02T07:42:49.207Z,91435.03
2018-03-02T07:45:15.758Z,91435.07
2018-03-02T07:47:42.379Z,91422.39
2018-03-02T07:50:08.939Z,91427.09
2018-03-02T07:52:36.251Z,91431.81
2018-03-02T07:55:02.843Z,91430.55
2018-03-02T07:57:30.165Z,91434.73
2018-03-02T07:59:56.719Z,91435.30
2018-03-02T08:02:24.066Z,91439.56
2018-03-02T08:04:50.643Z,91434.00
2018-03-02T08:07:17.274Z,91429.56
2018-03-02T08:09:43.878Z,91433.55
2018-03-02T08:12:10.435Z,91435.17
2018-03-02T08:14:37.046Z,91434.36
2018-03-02T08:17:04.383Z,91431.20
2018-03-02T08:19:30.990Z,91429.50
2018-03-02T08:21:57.683Z,91423.06
2018-03-02T08:24:25.019Z,91414.68
2018-03-02T08:26:51.843Z,91403.61
2018-03-02T08:29:18.427Z,91392.78
2018-03-02T08:31:45.004Z,91386.97
2018-03-02T08:34:11.576Z,91377.52
2018-03-02T08:36:38.128Z,91371.16
2018-03-02T08:39:04.793Z,91380.30
2018-03-02T08:41:32.195Z,91371.23
2018-03-02T08:43:59.741Z,91367.11
2018-03-02T08:46:26.312Z,91363.88
2018-03-02T08:48:52.907Z,91366.76
2018-03-02T08:51:19.496Z,91354.86
2018-03-02T08:53:46.064Z,91359.48
2018-03-02T08:56:12.608Z,91365.20
2018-03-02T08:58:39.188Z,91365.94
2018-03-02T09:01:06.507Z,91367.22
2018-03-02T09:03:33.094Z,91367.84
2018-03-02T09:06:00.183Z,91364.31
2018-03-02T09:08:26.743Z,91368.68
2018-03-02T09:10:54.068Z,91363.68
2018-03-02T09:13:20.976Z,91361.74
2018-03-02T09:15:47.999Z,91359.52
2018-03-02T09:18:14.592Z,91355.95
2018-03-02T09:20:41.166Z,91375.33
2018-03-02T09:23:07.734Z,91378.20
2018-03-02T09:25:34.330Z,91371.63
2018-03-02T09:28:00.886Z,91363.56
2018-03-02T09:30:27.779Z,91364.66
2018-03-02T09:32:54.346Z,91364.83
2018-03-02T09:35:20.946Z,91366.34
2018-03-02T09:37:47.512Z,91372.16
2018-03-02T09:40:15.137Z,91367.00
2018-03-02T09:42:41.708Z,91365.44
2018-03-02T09:45:08.309Z,91357.48
2018-03-02T09:47:34.912Z,91357.44
2018-03-02T09:50:02.546Z,91357.66
2018-03-02T09:52:29.115Z,91356.42
2018-03-02T09:54:56.426Z,91354.38
2018-03-02T09:57:23.054Z,91349.59
2018-03-02T09:59:49.684Z,91359.13
2018-03-02T10:02:16.282Z,91347.97
2018-03-02T10:04:43.603Z,91357.58
2018-03-02T10:07:10.177Z,91352.75
2018-03-02T10:09:37.487Z,91348.59
2018-03-02T10:12:04.399Z,91342.60
2018-03-02T10:14:30.966Z,91349.52
2018-03-02T10:16:57.512Z,91357.27
2018-03-02T10:19:24.107Z,91348.80
2018-03-02T10:21:50.697Z,91347.22
2018-03-02T10:24:17.329Z,91348.02
2018-03-02T10:26:43.893Z,91358.06
2018-03-02T10:29:10.867Z,91361.36
2018-03-02T10:31:37.543Z,91364.20
2018-03-02T10:34:04.807Z,91368.98
2018-03-02T10:36:31.404Z,91378.10
2018-03-02T10:38:57.937Z,91393.28
2018-03-02T10:41:24.510Z,91397.11
2018-03-02T10:43:51.101Z,91399.43
2018-03-02T10:46:17.674Z,91397.98
2018-03-02T10:48:44.231Z,91402.55
2018-03-02T10:51:10.787Z,91407.16
2018-03-02T10:53:37.402Z,91411.20
2018-03-02T10:56:04.717Z,91419.72
2018-03-02T10:58:31.546Z,91423.38
2018-03-02T11:00:58.149Z,91436.61
2018-03-02T11:03:24.758Z,91450.30
2018-03-02T11:05:52.471Z,91463.53
2018-03-02T11:08:19.798Z,91497.97
2018-03-02T11:10:47.074Z,91508.75
2018-03-02T11:13:13.640Z,91519.59
2018-03-02T11:15:40.226Z,91528.62
2018-03-02T11:18:07.576Z,91539.80
2018-03-02T11:20:34.162Z,91543.20
2018-03-02T11:23:01.903Z,91550.84
2018-03-02T11:25:28.458Z,91551.39
2018-03-02T11:27:55.081Z,91555.58
2018-03-02T11:30:21.682Z,91563.25
2018-03-02T11:32:48.538Z,91566.52
2018-03-02T11:35:15.841Z,91569.86
2018-03-02T11:37:43.178Z,91572.02
2018-03-02T11:40:09.806Z,91568.02
2018-03-02T11:42:36.394Z,91562.31
2018-03-02T11:45:02.997Z,91566.19
2018-03-02T11:47:29.689Z,91572.46
2018-03-02T11:49:57.386Z,91574.97
2018-03-02T11:52:23.942Z,91579.99
2018-03-02T11:54:50.529Z,91590.53
2018-03-02T11:57:17.850Z,91600.27
2018-03-02T11:59:45.199Z,91603.77
2018-03-02T12:02:12.127Z,91598.71
2018-03-02T12:04:38.719Z,91607.91
2018-03-02T12:07:06.060Z,91600.61
2018-03-02T12:09:33.394Z,91611.80
2018-03-02T12:12:00.737Z,91611.52
2018-03-02T12:14:27.555Z,91609.02
2018-03-02T12:16:54.133Z,91619.08
2018-03-02T12:19:20.674Z,91622.45
2018-03-02T12:21:47.294Z,91610.09
2018-03-02T12:24:13.860Z,91619.33
2018-03-02T12:26:40.967Z,91626.48
2018-03-02T12:29:07.554Z,91626.91
2018-03-02T12:31:34.167Z,91635.13
2018-03-02T12:34:01.486Z,91599.66
2018-03-02T12:36:28.038Z,91592.87
2018-03-02T12:38:55.362Z,91594.36
2018-03-02T12:41:22.318Z,91592.64
2018-03-02T12:43:48.895Z,91592.20
2018-03-02T12:46:15.544Z,91593.60
2018-03-02T12:48:42.313Z,91597.86
2018-03-02T12:51:08.919Z,91594.39
2018-03-02T12:53:37.084Z,91598.77
2018-03-02T12:56:04.393Z,91596.72
2018-03-02T12:58:30.981Z,91591.33
2018-03-02T13:00:57.656Z,91598.64
2018-03-02T13:03:24.259Z,91610.05
2018-03-02T13:05:50.900Z,91613.61
2018-03-02T13:08:17.458Z,91621.89
2018-03-02T13:10:44.053Z,91618.41
2018-03-02T13:13:11.431Z,91621.09
2018-03-02T13:15:38.038Z,91623.54
2018-03-02T13:18:05.420Z,91629.29
2018-03-02T13:20:32.032Z,91625.86
2018-03-02T13:22:58.690Z,91626.23
2018-03-02T13:25:25.327Z,91622.28
2018-03-02T13:28:11.022Z,91627.61
2018-03-02T13:30:37.546Z,91633.80
2018-03-02T13:33:23.438Z,91640.12
2018-03-02T13:35:50.023Z,91640.41
2018-03-02T13:38:16.605Z,91644.42
2018-03-02T13:41:02.335Z,91645.05
2018-03-02T13:43:29.627Z,91645.16
2018-03-02T13:45:56.337Z,91643.78
2018-03-02T13:48:42.142Z,91651.48
2018-03-02T13:51:08.689Z,91661.45
2018-03-02T13:53:35.323Z,91673.80
2018-03-02T13:56:02.695Z,91668.63
2018-03-02T13:58:29.324Z,91672.62
2018-03-02T14:00:55.945Z,91677.98
2018-03-02T14:03:40.811Z,91683.05
2018-03-02T14:06:07.386Z,91685.16
2018-03-02T14:08:33.983Z,91689.54
2018-03-02T14:11:00.604Z,91694.80
2018-03-02T14:13:27.524Z,91704.06
2018-03-02T14:15:54.107Z,91709.95
2018-03-02T14:18:20.739Z,91714.64
2018-03-02T14:20:48.104Z,91711.16
2018-03-02T14:23:14.754Z,91712.26
2018-03-02T14:25:41.389Z,91709.05
2018-03-02T14:28:08.020Z,91719.38
2018-03-02T14:30:35.376Z,91718.89
2018-03-02T14:33:02.894Z,91729.55
2018-03-02T14:35:29.446Z,91731.03
2018-03-02T14:37:56.022Z,91729.23
2018-03-02T14:40:23.368Z,91732.31
2018-03-02T14:42:50.710Z,91736.48
2018-03-02T14:45:18.060Z,91735.98
2018-03-02T14:47:44.959Z,91737.93
2018-03-02T14:50:11.536Z,91735.62
2018-03-02T14:52:38.151Z,91734.00
2018-03-02T14:55:05.091Z,91740.91
2018-03-02T14:57:31.678Z,91739.09
2018-03-02T14:59:58.971Z,91742.34
2018-03-02T15:02:25.987Z,91742.31
2018-03-02T15:04:52.519Z,91748.63
2018-03-02T15:07:19.113Z,91746.49
2018-03-02T15:09:45.691Z,91748.09
2018-03-02T15:12:12.324Z,91758.48
2018-03-02T15:14:38.983Z,91760.23
2018-03-02T15:17:05.548Z,91761.34
2018-03-02T15:19:32.115Z,91761.78
2018-03-02T15:21:58.713Z,91763.66
2018-03-02T15:24:25.355Z,91766.42
2018-03-02T15:26:51.951Z,91775.11
2018-03-02T15:29:18.830Z,91770.69
2018-03-02T15:31:45.473Z,91783.79
2018-03-02T15:34:12.050Z,91786.02
2018-03-02T15:36:39.408Z,91785.95
2018-03-02T15:39:06.769Z,91790.39
2018-03-02T15:41:34.099Z,91790.34
2018-03-02T15:44:00.776Z,91794.52
2018-03-02T15:46:27.334Z,91798.76
2018-03-02T15:48:53.903Z,91802.03
2018-03-02T15:51:21.340Z,91800.27
2018-03-02T15:53:47.921Z,91810.34
2018-03-02T15:56:14.556Z,91806.98
2018-03-02T15:58:41.118Z,91804.63
2018-03-02T16:01:07.689Z,91810.98
2018-03-02T16:03:34.430Z,91811.86
2018-03-02T16:06:01.055Z,91812.68
2018-03-02T16:08:27.767Z,91815.89
2018-03-02T16:10:54.369Z,91820.31
2018-03-02T16:13:21.024Z,91822.53
2018-03-02T16:15:48.372Z,91818.82
2018-03-02T16:18:15.139Z,91828.58
2018-03-02T16:20:41.927Z,91832.75
2018-03-02T16:23:08.485Z,91826.86
2018-03-02T16:25:35.110Z,91828.98
2018-03-02T16:28:01.807Z,91827.78
2018-03-02T16:30:28.489Z,91827.14
2018-03-02T16:32:55.314Z,91829.07
2018-03-02T16:35:21.899Z,91826.45
2018-03-02T16:37:48.553Z,91831.25
2018-03-02T16:40:15.153Z,91835.44
2018-03-02T16:42:41.766Z,91836.02
2018-03-02T16:45:08.375Z,91842.91
2018-03-02T16:47:34.968Z,91849.16
2018-03-02T16:50:01.652Z,91848.52
2018-03-02T16:52:28.298Z,91852.30
2018-03-02T16:54:54.927Z,91852.94
2018-03-02T16:57:21.606Z,91857.83
2018-03-02T16:59:48.195Z,91857.35
2018-03-02T17:02:14.909Z,91861.22
2018-03-02T17:04:41.759Z,91863.63
2018-03-02T17:07:08.327Z,91871.11
2018-03-02T17:09:34.908Z,91867.04
2018-03-02T17:12:01.806Z,91871.94
2018-03-02T17:14:28.401Z,91880.02
2018-03-02T17:16:55.729Z,91879.25
2018-03-02T17:19:22.672Z,91885.01
2018-03-02T17:21:49.233Z,91885.95
2018-03-02T17:24:16.544Z,91885.95
2018-03-02T17:26:43.186Z,91882.66
2018-03-02T17:29:09.746Z,91881.45
2018-03-02T17:31:36.374Z,91880.83
2018-03-02T17:34:03.746Z,91873.73
2018-03-02T17:36:30.386Z,91884.06
2018-03-02T17:38:57.005Z,91893.94
2018-03-02T17:41:23.587Z,91890.73
2018-03-02T17:43:50.151Z,91894.75
2018-03-02T17:46:17.506Z,91899.70
2018-03-02T17:48:44.929Z,91903.09
2018-03-02T17:51:11.565Z,91902.81
2018-03-02T17:53:38.151Z,91901.72
2018-03-02T17:56:07.576Z,91905.73
2018-03-02T17:58:34.964Z,91904.55
2018-03-02T18:01:01.659Z,91902.77
2018-03-02T18:03:28.241Z,91907.03
2018-03-02T18:05:54.868Z,91904.38
2018-03-02T18:08:21.626Z,91910.66
2018-03-02T18:10:48.257Z,91909.51
2018-03-02T18:13:14.934Z,91911.22
2018-03-02T18:15:41.483Z,91910.11
2018-03-02T18:18:08.089Z,91912.05
2018-03-02T18:20:34.712Z,91916.72
2018-03-02T18:23:01.300Z,91914.47
2018-03-02T18:25:28.642Z,91914.19
2018-03-02T18:27:56.018Z,91918.33
2018-03-02T18:30:22.588Z,91912.92
2018-03-02T18:32:49.189Z,91912.84
2018-03-02T18:35:16.502Z,91919.58
2018-03-02T18:37:43.063Z,91911.27
2018-03-02T18:40:09.727Z,91919.58
2018-03-02T18:42:37.074Z,91921.52
2018-03-02T18:45:04.427Z,91926.47
2018-03-02T18:47:31.114Z,91916.54
2018-03-02T18:49:57.696Z,91918.33
2018-03-02T18:52:24.558Z,91919.33
2018-03-02T18:54:51.158Z,91911.38
2018-03-02T18:57:17.829Z,91918.72
2018-03-02T18:59:45.375Z,91919.97
2018-03-02T19:02:12.680Z,91922.00
2018-03-02T19:04:39.280Z,91921.28
2018-03-02T19:07:05.963Z,91918.81
2018-03-02T19:09:32.584Z,91922.71
2018-03-02T19:11:59.179Z,91927.72
2018-03-02T19:14:26.501Z,91927.16
2018-03-02T19:16:53.071Z,91931.11
2018-03-02T19:19:19.654Z,91935.80
2018-03-02T19:21:46.475Z,91937.44
2018-03-02T19:24:13.081Z,91937.27
2018-03-02T19:26:39.726Z,91939.53
2018-03-02T19:29:07.082Z,91944.75
2018-03-02T19:31:33.675Z,91940.22
2018-03-02T19:34:00.285Z,91948.59
2018-03-02T19:36:27.060Z,91951.59
2018-03-02T19:38:53.783Z,91949.35
2018-03-02T19:41:20.377Z,91946.66
2018-03-02T19:43:47.746Z,91950.86
2018-03-02T19:46:14.356Z,91950.06
2018-03-02T19:48:41.768Z,91953.03
2018-03-02T19:51:08.738Z,91948.62
2018-03-02T19:53:35.321Z,91950.03
2018-03-02T19:56:01.891Z,91952.30
2018-03-02T19:58:28.517Z,91950.75
2018-03-02T20:00:55.174Z,91953.69
2018-03-02T20:03:22.502Z,91959.36
2018-03-02T20:05:49.085Z,91957.18
2018-03-02T20:08:16.010Z,91961.35
2018-03-02T20:10:42.595Z,91963.30
2018-03-02T20:13:09.195Z,91959.23
2018-03-02T20:15:36.630Z,91962.93
2018-03-02T20:18:03.214Z,91969.64
2018-03-02T20:20:30.515Z,91969.47
2018-03-02T20:22:57.120Z,91970.51
2018-03-02T20:25:23.859Z,91970.06
2018-03-02T20:27:50.465Z,91969.05
2018-03-02T20:30:17.841Z,91961.71
2018-03-02T20:32:44.508Z,91961.38
2018-03-02T20:35:11.086Z,91969.34
2018-03-02T20:37:37.675Z,91968.45
2018-03-02T20:40:04.313Z,91970.07
2018-03-02T20:42:30.938Z,91966.27
2018-03-02T20:44:57.591Z,91964.12
2018-03-02T20:47:24.274Z,91956.73
2018-03-02T20:49:50.880Z,91959.89
2018-03-02T20:52:17.501Z,91967.66
2018-03-02T20:54:44.119Z,91961.16
2018-03-02T20:57:11.468Z,91952.98
2018-03-02T20:59:38.810Z,91959.89
2018-03-02T21:02:05.550Z,91954.04
2018-03-02T21:04:32.876Z,91951.40
2018-03-02T21:06:59.485Z,91952.67
2018-03-02T21:09:26.067Z,91953.80
2018-03-02T21:11:52.980Z,91955.28
2018-03-02T21:14:19.548Z,91949.13
2018-03-02T21:16:46.956Z,91953.27
2018-03-02T21:19:13.567Z,91953.86
2018-03-02T21:21:40.942Z,91958.20
2018-03-02T21:24:07.550Z,91965.98
2018-03-02T21:26:34.894Z,91962.58
2018-03-02T21:29:01.482Z,91967.77
2018-03-02T21:31:28.091Z,91966.53
2018-03-02T21:33:54.720Z,91970.53
2018-03-02T21:36:22.060Z,91971.62
2018-03-02T21:38:49.405Z,91971.78
2018-03-02T21:41:15.981Z,91971.78
2018-03-02T21:43:42.641Z,91968.95
2018-03-02T21:46:09.190Z,91971.30
2018-03-02T21:48:35.758Z,91970.33
2018-03-02T21:51:03.198Z,91959.84
2018-03-02T21:53:29.774Z,91965.12
2018-03-02T21:55:56.393Z,91963.95
2018-03-02T21:58:23.734Z,91970.35
2018-03-02T22:00:50.642Z,91964.80
2018-03-02T22:03:17.217Z,91965.33
2018-03-02T22:05:43.803Z,91969.91
2018-03-02T22:08:10.390Z,91971.05
2018-03-02T22:10:36.965Z,91967.95
2018-03-02T22:13:03.624Z,91966.90
2018-03-02T22:15:30.202Z,91960.73
2018-03-02T22:17:57.542Z,91958.08
2018-03-02T22:20:24.122Z,91962.25
2018-03-02T22:22:50.769Z,91964.30
2018-03-02T22:25:17.375Z,91965.03
2018-03-02T22:27:44.710Z,91970.34
2018-03-02T22:30:11.555Z,91977.52
2018-03-02T22:32:38.127Z,91970.44
2018-03-02T22:35:05.454Z,91974.16
2018-03-02T22:37:32.763Z,91977.63
2018-03-02T22:39:59.335Z,91973.41
2018-03-02T22:42:25.883Z,91972.27
2018-03-02T22:44:52.476Z,91971.47
2018-03-02T22:47:19.089Z,91968.83
2018-03-02T22:49:45.663Z,91971.73
2018-03-02T22:52:12.242Z,91968.27
2018-03-02T22:54:39.538Z,91965.17
2018-03-02T22:57:06.112Z,91975.68
2018-03-02T22:59:32.659Z,91973.00
2018-03-02T23:01:59.254Z,91972.16
2018-03-02T23:04:25.850Z,91967.63
2018-03-02T23:06:52.420Z,91960.41
2018-03-02T23:09:19.007Z,91967.69
2018-03-02T23:11:46.350Z,91976.03
2018-03-02T23:14:13.250Z,91970.70
2018-03-02T23:16:39.799Z,91969.58
2018-03-02T23:19:06.355Z,91962.88
2018-03-02T23:21:32.992Z,91964.02
2018-03-02T23:24:00.359Z,91961.15
2018-03-02T23:26:27.695Z,91951.81
2018-03-02T23:28:54.311Z,91954.06
2018-03-02T23:31:21.622Z,91953.45
2018-03-02T23:33:48.974Z,91951.64
2018-03-02T23:36:16.299Z,91958.52
2018-03-02T23:38:43.639Z,91956.28
2018-03-02T23:41:10.918Z,91957.20
2018-03-02T23:43:38.214Z,91958.80
2018-03-02T23:46:04.798Z,91961.02
2018-03-02T23:48:31.358Z,91961.41
2018-03-02T23:50:58.657Z,91963.50
2018-03-02T23:53:25.234Z,91968.48
2018-03-02T23:55:52.845Z,91967.32
2018-03-02T23:58:19.421Z,91973.66
